CheckWX is a tool to help pilots better visualize weather data.  It is not intended as a substitute for an official pre-flight weather briefing.

22:14:32 UTC

KHZL METAR
Hazleton Regional Airport
Hazleton, Pennsylvania, USA
Current

20 mins ago

KHZL 152155Z AUTO 25003KT 10SM CLR 26/14 A3013 RMK AO2 PNO
Observed
Jul-15 @ 21:55 UTC
Wind
  • 250° at 3 KTS
Visibility
10 SM
Flight Rules
VFR
Cloud Levels
  • Clear skies
Temperature
26°C / 79°F
Dewpoint
14°C / 57°F
Humidity
48%
Altimeter
30.13" Hg
Pressure
1020.32 hPa
Previous

39 mins ago

KHZL 152136Z AUTO 25003KT 10SM CLR 26/14 A3013 RMK AO2 PNO
Observed
Jul-15 @ 21:36 UTC
Wind
  • 250° at 3 KTS
Visibility
10 SM
Flight Rules
VFR
Cloud Levels
  • Clear skies
Temperature
26°C / 79°F
Dewpoint
14°C / 57°F
Humidity
48%
Altimeter
30.13" Hg
Pressure
1020.32 hPa
Previous

1 hour ago

KHZL 152100Z AUTO 27003KT 10SM CLR 26/14 A3014 RMK AO2
Observed
Jul-15 @ 21:00 UTC
Wind
  • 270° at 3 KTS
Visibility
10 SM
Flight Rules
VFR
Cloud Levels
  • Clear skies
Temperature
26°C / 79°F
Dewpoint
14°C / 57°F
Humidity
48%
Altimeter
30.14" Hg
Pressure
1020.62 hPa